createdAt,value
2024-05-09T00:00:44.375Z,100079.95
2024-05-09T00:03:32.689Z,100079.36
2024-05-09T00:06:01.034Z,100080.70
2024-05-09T00:08:29.051Z,100080.25
2024-05-09T00:10:57.071Z,100075.36
2024-05-09T00:13:25.161Z,100074.21
2024-05-09T00:15:52.884Z,100075.19
2024-05-09T00:18:20.818Z,100073.31
2024-05-09T00:20:49.298Z,100070.06
2024-05-09T00:23:17.235Z,100075.08
2024-05-09T00:25:45.627Z,100070.32
2024-05-09T00:28:13.478Z,100072.48
2024-05-09T00:30:41.649Z,100067.73
2024-05-09T00:33:10.938Z,100070.75
2024-05-09T00:35:41.289Z,100066.07
2024-05-09T00:38:10.303Z,100067.11
2024-05-09T00:40:41.716Z,100063.67
2024-05-09T00:43:12.953Z,100057.59
2024-05-09T00:45:42.178Z,100056.21
2024-05-09T00:48:13.977Z,100052.35
2024-05-09T00:50:45.383Z,100057.84
2024-05-09T00:53:15.859Z,100057.27
2024-05-09T00:55:44.740Z,100061.70
2024-05-09T00:58:16.254Z,100060.75
2024-05-09T01:00:44.669Z,100062.52
2024-05-09T01:03:14.064Z,100062.55
2024-05-09T01:05:44.036Z,100063.52
2024-05-09T01:08:12.738Z,100060.67
2024-05-09T01:10:44.841Z,100061.42
2024-05-09T01:13:14.157Z,100065.18
2024-05-09T01:15:42.866Z,100071.09
2024-05-09T01:18:12.424Z,100068.72
2024-05-09T01:20:44.161Z,100069.09
2024-05-09T01:23:15.358Z,100076.36
2024-05-09T01:25:46.122Z,100076.65
2024-05-09T01:28:15.051Z,100073.63
2024-05-09T01:30:43.503Z,100076.30
2024-05-09T01:33:12.519Z,100081.80
2024-05-09T01:35:42.570Z,100079.35
2024-05-09T01:38:13.234Z,100084.92
2024-05-09T01:40:43.866Z,100081.80
2024-05-09T01:43:12.365Z,100086.80
2024-05-09T01:45:40.754Z,100089.09
2024-05-09T01:48:10.024Z,100089.81
2024-05-09T01:50:41.744Z,100089.49
2024-05-09T01:53:14.096Z,100088.38
2024-05-09T01:55:43.894Z,100090.45
2024-05-09T01:58:11.814Z,100090.21
2024-05-09T02:00:43.565Z,100088.95
2024-05-09T02:03:16.363Z,100088.68
2024-05-09T02:05:48.429Z,100083.65
2024-05-09T02:08:18.953Z,100086.61
2024-05-09T02:10:49.517Z,100084.63
2024-05-09T02:13:18.327Z,100087.24
2024-05-09T02:15:46.629Z,100085.40
2024-05-09T02:18:15.041Z,100083.56
2024-05-09T02:20:43.708Z,100082.16
2024-05-09T02:23:12.611Z,100084.44
2024-05-09T02:25:43.896Z,100082.86
2024-05-09T02:28:11.891Z,100085.80
2024-05-09T02:30:41.748Z,100087.73
2024-05-09T02:33:12.540Z,100089.67
2024-05-09T02:35:44.023Z,100092.22
2024-05-09T02:38:12.914Z,100091.70
2024-05-09T02:40:41.576Z,100094.67
2024-05-09T02:43:12.649Z,100094.17
2024-05-09T02:45:41.251Z,100093.52
2024-05-09T02:48:13.643Z,100097.58
2024-05-09T02:50:44.274Z,100096.60
2024-05-09T02:53:13.248Z,100101.73
2024-05-09T02:55:42.446Z,100101.70
2024-05-09T02:58:11.135Z,100099.96
2024-05-09T03:00:41.818Z,100096.48
2024-05-09T03:03:13.472Z,100097.85
2024-05-09T03:05:45.003Z,100098.59
2024-05-09T03:08:13.551Z,100102.77
2024-05-09T03:10:41.648Z,100105.04
2024-05-09T03:13:12.171Z,100105.40
2024-05-09T03:15:41.091Z,100102.32
2024-05-09T03:18:09.164Z,100105.08
2024-05-09T03:20:37.778Z,100104.58
2024-05-09T03:23:07.841Z,100107.02
2024-05-09T03:25:36.467Z,100104.15
2024-05-09T03:28:04.643Z,100106.19
2024-05-09T03:30:40.013Z,100107.32
2024-05-09T03:33:11.754Z,100113.06
2024-05-09T03:35:39.963Z,100113.71
2024-05-09T03:38:08.016Z,100115.09
2024-05-09T03:40:35.903Z,100114.72
2024-05-09T03:43:03.835Z,100116.49
2024-05-09T03:45:31.627Z,100121.40
2024-05-09T03:47:59.643Z,100122.80
2024-05-09T03:50:33.816Z,100123.11
2024-05-09T03:53:04.296Z,100128.19
2024-05-09T03:55:32.275Z,100129.80
2024-05-09T03:58:00.407Z,100136.61
2024-05-09T04:00:35.655Z,100134.80
2024-05-09T04:03:09.685Z,100139.88
2024-05-09T04:05:41.758Z,100140.52
2024-05-09T04:08:11.302Z,100142.38
2024-05-09T04:10:39.407Z,100138.89
2024-05-09T04:13:07.292Z,100139.70
2024-05-09T04:15:35.160Z,100136.61
2024-05-09T04:18:03.320Z,100136.76
2024-05-09T04:20:38.131Z,100135.66
2024-05-09T04:23:13.547Z,100138.17
2024-05-09T04:25:44.217Z,100142.34
2024-05-09T04:28:14.721Z,100143.80
2024-05-09T04:30:43.374Z,100145.41
2024-05-09T04:33:15.193Z,100149.48
2024-05-09T04:35:44.043Z,100152.05
2024-05-09T04:38:13.832Z,100150.30
2024-05-09T04:40:42.576Z,100152.28
2024-05-09T04:43:19.296Z,100152.81
2024-05-09T04:45:47.274Z,100156.42
2024-05-09T04:48:16.507Z,100156.54
2024-05-09T04:50:44.910Z,100156.74
2024-05-09T04:53:16.382Z,100160.35
2024-05-09T04:55:44.819Z,100159.14
2024-05-09T04:58:12.634Z,100158.41
2024-05-09T05:00:41.548Z,100157.76
2024-05-09T05:03:13.813Z,100157.58
2024-05-09T05:05:45.683Z,100163.99
2024-05-09T05:08:19.171Z,100160.85
2024-05-09T05:10:48.522Z,100161.63
2024-05-09T05:13:20.746Z,100165.96
2024-05-09T05:15:52.223Z,100170.43
2024-05-09T05:18:20.343Z,100171.73
2024-05-09T05:20:49.135Z,100176.10
2024-05-09T05:23:19.899Z,100178.48
2024-05-09T05:25:49.655Z,100175.30
2024-05-09T05:28:18.081Z,100174.45
2024-05-09T05:30:46.487Z,100172.64
2024-05-09T05:33:15.967Z,100172.04
2024-05-09T05:35:44.213Z,100174.30
2024-05-09T05:38:12.286Z,100174.88
2024-05-09T05:40:41.004Z,100176.32
2024-05-09T05:43:16.440Z,100177.80
2024-05-09T05:45:45.037Z,100180.27
2024-05-09T05:48:16.059Z,100182.03
2024-05-09T05:50:44.433Z,100185.09
2024-05-09T05:53:12.504Z,100185.81
2024-05-09T05:55:41.535Z,100192.02
2024-05-09T05:58:13.250Z,100190.98
2024-05-09T06:00:42.101Z,100193.90
2024-05-09T06:03:13.433Z,100197.56
2024-05-09T06:05:46.514Z,100199.86
2024-05-09T06:08:14.844Z,100195.38
2024-05-09T06:10:43.671Z,100194.90
2024-05-09T06:13:13.309Z,100196.86
2024-05-09T06:15:42.334Z,100194.44
2024-05-09T06:18:12.078Z,100195.44
2024-05-09T06:20:42.622Z,100191.60
2024-05-09T06:23:12.870Z,100189.79
2024-05-09T06:25:42.386Z,100187.10
2024-05-09T06:28:11.010Z,100187.88
2024-05-09T06:30:42.311Z,100190.28
2024-05-09T06:33:14.047Z,100189.63
2024-05-09T06:35:44.819Z,100193.70
2024-05-09T06:38:13.780Z,100194.98
2024-05-09T06:40:43.814Z,100197.51
2024-05-09T06:43:18.250Z,100197.88
2024-05-09T06:45:49.190Z,100198.88
2024-05-09T06:48:21.634Z,100194.35
2024-05-09T06:50:50.732Z,100194.31
2024-05-09T06:53:22.667Z,100200.66
2024-05-09T06:55:50.451Z,100195.65
2024-05-09T06:58:18.506Z,100198.73
2024-05-09T07:00:46.284Z,100204.00
2024-05-09T07:03:17.885Z,100199.90
2024-05-09T07:05:48.629Z,100199.96
2024-05-09T07:08:18.217Z,100197.59
2024-05-09T07:10:46.856Z,100194.87
2024-05-09T07:13:15.742Z,100197.98
2024-05-09T07:15:43.643Z,100198.73
2024-05-09T07:18:13.798Z,100198.71
2024-05-09T07:20:42.840Z,100197.30
2024-05-09T07:23:12.930Z,100195.75
2024-05-09T07:25:41.663Z,100196.45
2024-05-09T07:28:20.416Z,100195.06
2024-05-09T07:30:48.339Z,100194.09
2024-05-09T07:33:17.766Z,100193.11
2024-05-09T07:35:46.122Z,100197.17
2024-05-09T07:38:15.056Z,100197.85
2024-05-09T07:40:42.978Z,100195.00
2024-05-09T07:43:11.954Z,100194.38
2024-05-09T07:45:49.356Z,100194.02
2024-05-09T07:52:37.887Z,100189.52
2024-05-09T07:53:49.110Z,100186.79
2024-05-09T07:56:22.586Z,100187.77
2024-05-09T07:58:53.838Z,100185.86
2024-05-09T08:01:22.078Z,100190.43
2024-05-09T08:03:50.649Z,100186.25
2024-05-09T08:06:19.071Z,100185.59
2024-05-09T08:08:47.391Z,100188.91
2024-05-09T08:11:15.885Z,100185.72
2024-05-09T08:13:43.932Z,100188.68
2024-05-09T08:16:14.310Z,100188.34
2024-05-09T08:18:42.537Z,100190.09
2024-05-09T08:21:10.431Z,100191.32
2024-05-09T08:23:38.445Z,100189.56
2024-05-09T08:26:08.551Z,100194.05
2024-05-09T08:28:36.284Z,100197.67
2024-05-09T08:31:06.946Z,100197.33
2024-05-09T08:33:35.410Z,100199.70
2024-05-09T08:36:03.715Z,100199.75
2024-05-09T08:38:32.162Z,100199.09
2024-05-09T08:41:03.365Z,100196.45
2024-05-09T08:43:31.136Z,100200.52
2024-05-09T08:45:59.940Z,100204.04
2024-05-09T08:48:30.149Z,100204.20
2024-05-09T08:50:59.295Z,100197.60
2024-05-09T08:53:27.750Z,100201.70
2024-05-09T08:56:00.893Z,100202.39
2024-05-09T08:58:33.340Z,100201.21
2024-05-09T09:01:03.789Z,100200.41
2024-05-09T09:03:34.244Z,100205.89
2024-05-09T09:06:06.794Z,100204.90
2024-05-09T09:08:41.324Z,100203.98
2024-05-09T09:11:09.388Z,100200.80
2024-05-09T09:13:37.854Z,100200.54
2024-05-09T09:16:06.836Z,100201.48
2024-05-09T09:18:34.972Z,100200.60
2024-05-09T09:21:03.311Z,100201.97
2024-05-09T09:23:31.324Z,100198.70
2024-05-09T09:26:00.208Z,100192.42
2024-05-09T09:28:29.480Z,100193.88
2024-05-09T09:31:04.637Z,100195.44
2024-05-09T09:33:35.611Z,100197.53
2024-05-09T09:36:06.291Z,100195.36
2024-05-09T09:38:37.444Z,100197.14
2024-05-09T09:41:08.176Z,100198.69
2024-05-09T09:43:36.942Z,100193.22
2024-05-09T09:46:08.635Z,100193.05
2024-05-09T09:48:40.609Z,100193.36
2024-05-09T09:51:09.242Z,100194.27
2024-05-09T09:53:38.280Z,100190.69
2024-05-09T09:56:10.348Z,100193.02
2024-05-09T09:58:41.420Z,100193.48
2024-05-09T10:01:09.865Z,100191.98
2024-05-09T10:03:38.561Z,100189.38
2024-05-09T10:06:09.532Z,100189.98
2024-05-09T10:08:38.048Z,100191.55
2024-05-09T10:11:06.312Z,100192.93
2024-05-09T10:13:37.383Z,100191.75
2024-05-09T10:16:10.572Z,100190.92
2024-05-09T10:18:40.577Z,100189.58
2024-05-09T10:21:19.692Z,100184.81
2024-05-09T10:24:18.992Z,100182.02
2024-05-09T10:26:55.124Z,100180.67
2024-05-09T10:29:25.564Z,100179.62
2024-05-09T10:31:53.608Z,100184.38
2024-05-09T10:34:24.436Z,100187.41
2024-05-09T10:36:54.444Z,100186.67
2024-05-09T10:39:22.583Z,100184.78
2024-05-09T10:41:50.574Z,100185.05
2024-05-09T10:44:18.795Z,100181.38
2024-05-09T10:46:47.211Z,100179.27
2024-05-09T10:49:15.262Z,100178.66
2024-05-09T10:51:46.383Z,100175.23
2024-05-09T10:54:14.199Z,100176.40
2024-05-09T10:56:42.304Z,100175.59
2024-05-09T10:59:12.870Z,100173.89
2024-05-09T11:01:41.034Z,100172.20
2024-05-09T11:04:09.176Z,100172.45
2024-05-09T11:06:38.227Z,100172.17
2024-05-09T11:09:06.479Z,100172.86
2024-05-09T11:11:34.609Z,100167.30
2024-05-09T11:14:12.244Z,100163.03
2024-05-09T11:16:40.229Z,100157.42
2024-05-09T11:19:13.462Z,100153.48
2024-05-09T11:21:41.453Z,100154.77
2024-05-09T11:24:11.463Z,100159.41
2024-05-09T11:26:39.727Z,100159.58
2024-05-09T11:29:07.631Z,100161.21
2024-05-09T11:31:48.043Z,100167.27
2024-05-09T11:34:16.264Z,100170.23
2024-05-09T11:36:44.261Z,100174.23
2024-05-09T11:39:14.821Z,100175.45
2024-05-09T11:41:43.083Z,100166.81
2024-05-09T11:44:11.452Z,100169.12
2024-05-09T11:46:39.463Z,100164.42
2024-05-09T11:49:09.592Z,100166.54
2024-05-09T11:51:37.628Z,100161.80
2024-05-09T11:54:05.366Z,100162.30
2024-05-09T11:56:33.515Z,100160.76
2024-05-09T11:59:03.331Z,100160.02
2024-05-09T12:01:31.120Z,100157.73
2024-05-09T12:03:59.453Z,100158.61
2024-05-09T12:06:27.570Z,100155.11
2024-05-09T12:08:56.332Z,100156.55
2024-05-09T12:11:24.134Z,100157.70
2024-05-09T12:13:51.994Z,100149.31
2024-05-09T12:16:19.970Z,100145.46
2024-05-09T12:18:48.128Z,100146.38
2024-05-09T12:21:17.334Z,100146.11
2024-05-09T12:23:45.047Z,100141.68
2024-05-09T12:26:13.131Z,100139.41
2024-05-09T12:28:41.000Z,100137.31
2024-05-09T12:31:08.916Z,100135.75
2024-05-09T12:33:37.222Z,100133.05
2024-05-09T12:36:05.839Z,100132.96
2024-05-09T12:38:33.598Z,100128.98
2024-05-09T12:41:02.212Z,100127.74
2024-05-09T12:43:30.332Z,100123.69
2024-05-09T12:45:58.652Z,100114.71
2024-05-09T12:48:26.382Z,100110.56
2024-05-09T12:50:57.401Z,100103.28
2024-05-09T12:53:25.235Z,100102.92
2024-05-09T12:55:57.044Z,100102.28
2024-05-09T12:58:28.561Z,100098.62
2024-05-09T13:00:56.753Z,100101.89
2024-05-09T13:03:24.848Z,100101.95
2024-05-09T13:05:53.812Z,100098.53
2024-05-09T13:08:22.126Z,100100.71
2024-05-09T13:10:50.650Z,100096.28
2024-05-09T13:13:18.709Z,100100.27
2024-05-09T13:15:46.563Z,100097.88
2024-05-09T13:18:14.929Z,100101.50
2024-05-09T13:20:44.244Z,100101.80
2024-05-09T13:23:11.987Z,100102.11
2024-05-09T13:25:40.428Z,100101.84
2024-05-09T13:28:08.814Z,100099.03
2024-05-09T13:30:40.843Z,100105.42
2024-05-09T13:33:12.188Z,100101.16
2024-05-09T13:35:48.703Z,100100.42
2024-05-09T13:38:21.142Z,100101.16
2024-05-09T13:40:50.372Z,100094.17
2024-05-09T13:43:19.263Z,100093.07
2024-05-09T13:45:47.644Z,100094.39
2024-05-09T13:48:15.932Z,100092.73
2024-05-09T13:50:44.044Z,100093.07
2024-05-09T13:53:12.094Z,100089.74
2024-05-09T13:55:40.764Z,100093.48
2024-05-09T13:58:09.602Z,100093.74
2024-05-09T14:00:46.585Z,100090.29
2024-05-09T14:03:20.434Z,100086.23
2024-05-09T14:05:51.390Z,100084.80
2024-05-09T14:08:21.749Z,100082.22
2024-05-09T14:10:50.472Z,100083.79
2024-05-09T14:13:20.011Z,100080.14
2024-05-09T14:15:48.405Z,100079.53
2024-05-09T14:18:17.249Z,100079.25
2024-05-09T14:20:45.026Z,100077.91
2024-05-09T14:23:12.911Z,100076.84
2024-05-09T14:25:42.902Z,100073.74
2024-05-09T14:28:12.634Z,100075.67
2024-05-09T14:30:42.057Z,100070.65
2024-05-09T14:33:11.424Z,100068.68
2024-05-09T14:35:39.758Z,100067.15
2024-05-09T14:38:08.782Z,100066.11
2024-05-09T14:40:42.378Z,100064.66
2024-05-09T14:43:14.102Z,100059.66
2024-05-09T14:45:43.769Z,100061.47
2024-05-09T14:48:15.676Z,100061.04
2024-05-09T14:50:44.157Z,100064.77
2024-05-09T14:53:13.196Z,100058.55
2024-05-09T14:55:43.316Z,100049.77
2024-05-09T14:58:12.842Z,100055.27
2024-05-09T15:00:46.266Z,100061.13
2024-05-09T15:03:19.389Z,100061.88
2024-05-09T15:05:48.077Z,100061.20
2024-05-09T15:08:17.454Z,100060.75
2024-05-09T15:10:45.482Z,100062.69
2024-05-09T15:13:16.379Z,100059.75
2024-05-09T15:15:45.470Z,100061.18
2024-05-09T15:18:14.604Z,100058.31
2024-05-09T15:20:44.556Z,100049.72
2024-05-09T15:23:12.612Z,100046.99
2024-05-09T15:25:40.744Z,100045.30
2024-05-09T15:28:08.782Z,100045.61
2024-05-09T15:30:37.613Z,100047.22
2024-05-09T15:33:07.202Z,100041.26
2024-05-09T15:35:40.904Z,100035.45
2024-05-09T15:38:09.535Z,100034.21
2024-05-09T15:40:40.080Z,100027.32
2024-05-09T15:43:11.257Z,100027.89
2024-05-09T15:45:41.353Z,100025.69
2024-05-09T15:48:10.738Z,100019.58
2024-05-09T15:50:41.369Z,100020.91
2024-05-09T15:53:12.536Z,100017.15
2024-05-09T15:55:42.552Z,100017.20
2024-05-09T15:58:12.436Z,100013.67
2024-05-09T16:00:44.033Z,100014.59
2024-05-09T16:03:14.706Z,100009.46
2024-05-09T16:05:45.490Z,100011.82
2024-05-09T16:08:15.483Z,100015.11
2024-05-09T16:10:45.828Z,100012.52
2024-05-09T16:13:15.300Z,100011.77
2024-05-09T16:15:44.047Z,100010.14
2024-05-09T16:18:12.480Z,100008.26
2024-05-09T16:20:42.571Z,100010.64
2024-05-09T16:23:12.872Z,100008.17
2024-05-09T16:25:45.979Z,100007.72
2024-05-09T16:28:13.793Z,100008.75
2024-05-09T16:30:41.706Z,100006.02
2024-05-09T16:33:11.573Z,100006.87
2024-05-09T16:35:40.167Z,100007.95
2024-05-09T16:38:08.516Z,100007.30
2024-05-09T16:40:40.214Z,100005.98
2024-05-09T16:43:12.936Z,100011.91
2024-05-09T16:45:46.332Z,100013.47
2024-05-09T16:48:14.835Z,100012.56
2024-05-09T16:50:43.531Z,100011.23
2024-05-09T16:53:11.469Z,100007.48
2024-05-09T16:55:39.688Z,100016.36
2024-05-09T16:58:08.565Z,100023.32
2024-05-09T17:00:41.739Z,100021.70
2024-05-09T17:03:14.804Z,100024.13
2024-05-09T17:05:46.639Z,100023.51
2024-05-09T17:08:16.852Z,100018.48
2024-05-09T17:10:45.004Z,100021.98
2024-05-09T17:13:13.157Z,100019.80
2024-05-09T17:15:41.445Z,100020.98
2024-05-09T17:18:10.055Z,100025.48
2024-05-09T17:20:38.246Z,100025.82
2024-05-09T17:23:15.504Z,100028.15
2024-05-09T17:25:43.772Z,100029.66
2024-05-09T17:28:12.549Z,100033.72
2024-05-09T17:30:42.210Z,100035.46
2024-05-09T17:33:12.890Z,100038.52
2024-05-09T17:35:41.736Z,100045.13
2024-05-09T17:38:09.636Z,100045.39
2024-05-09T17:40:38.948Z,100049.93
2024-05-09T17:43:09.981Z,100047.16
2024-05-09T17:45:40.905Z,100050.75
2024-05-09T17:48:11.952Z,100051.36
2024-05-09T17:50:41.624Z,100055.98
2024-05-09T17:53:10.842Z,100061.70
2024-05-09T17:55:40.239Z,100062.92
2024-05-09T17:58:09.619Z,100064.89
2024-05-09T18:00:40.715Z,100067.64
2024-05-09T18:03:12.040Z,100073.08
2024-05-09T18:05:43.962Z,100078.50
2024-05-09T18:08:14.335Z,100076.98
2024-05-09T18:10:42.980Z,100080.33
2024-05-09T18:13:12.351Z,100085.95
2024-05-09T18:15:41.193Z,100082.44
2024-05-09T18:18:10.496Z,100083.98
2024-05-09T18:20:43.883Z,100084.15
2024-05-09T18:23:18.476Z,100086.07
2024-05-09T18:25:48.042Z,100090.52
2024-05-09T18:28:17.084Z,100089.20
2024-05-09T18:30:45.519Z,100089.27
2024-05-09T18:33:14.040Z,100086.38
2024-05-09T18:35:43.882Z,100093.79
2024-05-09T18:38:11.983Z,100089.64
2024-05-09T18:40:42.018Z,100097.05
2024-05-09T18:43:11.727Z,100098.77
2024-05-09T18:45:40.637Z,100105.63
2024-05-09T18:48:12.214Z,100102.72
2024-05-09T18:50:41.391Z,100105.36
2024-05-09T18:53:13.093Z,100108.52
2024-05-09T18:55:42.460Z,100114.11
2024-05-09T18:58:11.197Z,100112.02
2024-05-09T19:00:41.811Z,100118.60
2024-05-09T19:03:14.139Z,100126.52
2024-05-09T19:05:44.669Z,100126.90
2024-05-09T19:08:15.063Z,100125.20
2024-05-09T19:10:45.216Z,100127.45
2024-05-09T19:13:14.488Z,100129.52
2024-05-09T19:15:43.819Z,100128.27
2024-05-09T19:18:14.210Z,100127.21
2024-05-09T19:20:44.170Z,100129.64
2024-05-09T19:23:12.610Z,100130.91
2024-05-09T19:25:40.776Z,100134.84
2024-05-09T19:28:09.048Z,100141.07
2024-05-09T19:30:41.844Z,100143.42
2024-05-09T19:33:13.224Z,100144.06
2024-05-09T19:35:43.059Z,100149.25
2024-05-09T19:38:12.010Z,100148.55
2024-05-09T19:40:41.378Z,100147.64
2024-05-09T19:43:09.819Z,100153.55
2024-05-09T19:45:38.212Z,100149.15
2024-05-09T19:48:06.949Z,100155.63
2024-05-09T19:50:41.962Z,100160.16
2024-05-09T19:53:14.559Z,100162.90
2024-05-09T19:55:43.401Z,100159.12
2024-05-09T19:58:12.053Z,100162.74
2024-05-09T20:00:43.071Z,100162.06
2024-05-09T20:03:15.359Z,100165.47
2024-05-09T20:05:46.311Z,100166.20
2024-05-09T20:08:14.599Z,100168.95
2024-05-09T20:10:44.342Z,100168.72
2024-05-09T20:13:13.537Z,100165.65
2024-05-09T20:15:42.301Z,100166.71
2024-05-09T20:18:10.773Z,100169.90
2024-05-09T20:20:42.390Z,100164.14
2024-05-09T20:23:12.867Z,100167.48
2024-05-09T20:25:41.897Z,100168.48
2024-05-09T20:28:10.656Z,100171.57
2024-05-09T20:30:39.077Z,100170.43
2024-05-09T20:33:08.644Z,100170.80
2024-05-09T20:35:37.819Z,100170.73
2024-05-09T20:38:06.131Z,100170.84
2024-05-09T20:40:37.704Z,100168.23
2024-05-09T20:43:09.458Z,100173.59
2024-05-09T20:45:38.249Z,100172.11
2024-05-09T20:48:07.410Z,100172.91
2024-05-09T20:50:39.980Z,100176.74
2024-05-09T20:53:14.762Z,100175.14
2024-05-09T20:55:44.410Z,100172.30
2024-05-09T20:58:13.796Z,100169.92
2024-05-09T21:00:44.794Z,100168.25
2024-05-09T21:03:16.795Z,100168.95
2024-05-09T21:05:47.257Z,100171.25
2024-05-09T21:08:16.063Z,100176.01
2024-05-09T21:10:44.572Z,100174.18
2024-05-09T21:13:12.993Z,100174.13
2024-05-09T21:15:41.252Z,100174.73
2024-05-09T21:18:09.317Z,100168.51
2024-05-09T21:20:37.456Z,100171.85
2024-05-09T21:23:05.678Z,100169.44
2024-05-09T21:25:33.854Z,100171.15
2024-05-09T21:28:02.024Z,100175.67
2024-05-09T21:30:38.629Z,100171.42
2024-05-09T21:33:13.402Z,100169.42
2024-05-09T21:35:44.014Z,100165.46
2024-05-09T21:38:14.380Z,100162.86
2024-05-09T21:40:43.376Z,100161.77
2024-05-09T21:43:11.273Z,100162.53
2024-05-09T21:45:39.410Z,100165.36
2024-05-09T21:48:08.202Z,100166.75
2024-05-09T21:50:40.337Z,100167.50
2024-05-09T21:53:12.503Z,100167.60
2024-05-09T21:55:42.510Z,100168.75
2024-05-09T21:58:12.152Z,100169.41
2024-05-09T22:00:42.802Z,100167.89
2024-05-09T22:03:12.077Z,100168.35
2024-05-09T22:05:44.277Z,100168.11
2024-05-09T22:08:12.927Z,100168.34
2024-05-09T22:10:40.775Z,100171.33
2024-05-09T22:13:09.148Z,100169.59
2024-05-09T22:15:39.933Z,100168.56
2024-05-09T22:18:10.615Z,100167.52
2024-05-09T22:20:46.596Z,100171.61
2024-05-09T22:23:15.525Z,100174.29
2024-05-09T22:25:43.791Z,100172.77
2024-05-09T22:28:15.092Z,100170.51
2024-05-09T22:30:46.007Z,100171.91
2024-05-09T22:33:15.182Z,100167.45
2024-05-09T22:35:43.161Z,100163.20
2024-05-09T22:38:11.039Z,100155.38
2024-05-09T22:40:47.350Z,100150.19
2024-05-09T22:43:23.898Z,100147.83
2024-05-09T22:45:56.586Z,100147.92
2024-05-09T22:48:26.524Z,100148.44
2024-05-09T22:50:54.737Z,100144.10
2024-05-09T22:53:26.801Z,100142.56
2024-05-09T22:55:54.760Z,100144.90
2024-05-09T22:58:23.153Z,100144.61
2024-05-09T23:00:51.647Z,100144.87
2024-05-09T23:03:21.121Z,100148.11
2024-05-09T23:05:49.537Z,100153.33
2024-05-09T23:08:17.650Z,100158.13
2024-05-09T23:10:45.977Z,100164.06
2024-05-09T23:13:14.228Z,100163.52
2024-05-09T23:15:42.087Z,100163.34
2024-05-09T23:18:10.143Z,100163.61
2024-05-09T23:20:39.907Z,100166.73
2024-05-09T23:23:10.523Z,100166.05
2024-05-09T23:25:43.304Z,100170.64
2024-05-09T23:28:11.952Z,100172.98
2024-05-09T23:30:41.154Z,100170.25
2024-05-09T23:33:14.681Z,100167.59
2024-05-09T23:35:44.297Z,100165.73
2024-05-09T23:38:13.579Z,100171.02
2024-05-09T23:40:42.976Z,100166.06
2024-05-09T23:43:12.776Z,100164.50
2024-05-09T23:45:42.149Z,100164.83
2024-05-09T23:48:10.908Z,100164.09
2024-05-09T23:50:40.292Z,100163.38
2024-05-09T23:53:10.553Z,100158.53
2024-05-09T23:55:39.082Z,100152.24
2024-05-09T23:58:08.035Z,100157.04
